Maryland METAR Reports


Distance/Direction noted is from Ellicott City, MD as the crow flies

KCBE - Cumberland - 118 miles WNW
Updated: Mon, 09/01/2014 9:27 AM
Overcast
Overcast
 Wind from calm
Wind: Calm
Temperature: 73°F
Dew Point: 72°F
Humidity: 94%
Barometer: 30.08 inHg
Clouds: Overcast
Visibility: 10 miles
Cloud Details: Partly Cloudy 1800 ft
Mostly Cloudy 3000 ft
Overcast 3900 ft
2014/09/01 13:27 KCBE 011327Z AUTO 00000KT 10SM SCT018 BKN030 OVC039 23/22 A3008 RMK AO1
KHGR - Hagerstown - 57 miles NW
Updated: Mon, 09/01/2014 8:53 AM
Overcast
Overcast
 Wind from SSE
Wind: SSE 7 mph
Temperature: 73°F
Dew Point: 72°F
Humidity: 94%
Barometer: 30.04 inHg
Clouds: Overcast
Visibility: 10 miles
Cloud Details: Partly Cloudy 4600 ft
Overcast 6000 ft
2014/09/01 12:53 KHGR 011253Z 16006KT 10SM SCT046 OVC060 23/22 A3004 RMK AO2 RAB19E49 SLP174 P0000 T02330217
 
KFDK - Frederick - 34 miles NW
Updated: Mon, 09/01/2014 8:47 AM
Overcast
Overcast
 Wind from calm
Wind: Calm
Clouds: Overcast
Visibility: 10 miles
Cloud Details: Partly Cloudy 500 ft
Overcast 4700 ft
2014/09/01 12:47 KFDK 011247Z 00000KT 10SM SCT005 OVC047 MM/MM A3006
KGAI - Gaithersburg - 26 miles SW
Updated: Mon, 09/01/2014 9:15 AM
Clear
Clear
 Wind from W
Wind: W 5 mph
Temperature: 77°F
Dew Point: 73°F
Humidity: 89%
Barometer: 30.07 inHg
Clouds: Clear
Visibility: 10 miles
2014/09/01 13:15 KGAI 011315Z AUTO 27004KT 10SM CLR 25/23 A3007 RMK AO1
 
KBWI - BWI Airport - 15 miles SE
Updated: Mon, 09/01/2014 8:54 AM
Mostly Cloudy
Mostly Cloudy
 Wind from calm
Wind: Calm
Temperature: 75°F
Dew Point: 73°F
Humidity: 94%
Barometer: 30.03 inHg
Clouds: Mostly Cloudy
Visibility: 10 miles
Cloud Details: Few Clouds 1000 ft
Partly Cloudy 7000 ft
Mostly Cloudy 14000 ft
Mostly Cloudy 18000 ft
2014/09/01 12:54 KBWI 011254Z 00000KT 10SM FEW010 SCT070 BKN140 BKN180 24/23 A3003 RMK AO2 SLP166 T02440228 $
KNAK - Annapolis - 32 miles SSE
Updated: Mon, 09/01/2014 8:54 AM
Clear
Clear
 Wind from calm
Wind: Calm
Temperature: 79°F
Dew Point: 72°F
Humidity: 79%
Barometer: 30.02 inHg
Clouds: Clear
Visibility: 10 miles
2014/09/01 12:54 KNAK 011254Z AUTO 00000KT 10SM CLR 26/22 A3002 RMK AO2 RAB22E31 SLP168 P0000 T02560222
 
KESN - Easton - 63 miles SE
Updated: Mon, 09/01/2014 8:45 AM
Rain, Mostly cloudy
Rain, Mostly cloudy
 Wind from SSW
Wind: SSW 5 mph
Temperature: 77°F
Dew Point: 77°F
Humidity: 100%
Barometer: 30.06 inHg
Summary: Rain
Clouds: Mostly Cloudy
Visibility: 10 miles
Cloud Details: Mostly Cloudy 8000 ft
2014/09/01 12:45 KESN 011245Z 20004KT 10SM RA BKN080 25/25 A3006
KSBY - Salisbury - 112 miles SE
Updated: Mon, 09/01/2014 8:54 AM
Clear
Clear
 Wind from WSW
Wind: WSW 9 mph
Temperature: 81°F
Heat Index: 87°F
Dew Point: 75°F
Humidity: 84%
Barometer: 30.04 inHg
Clouds: Clear
Visibility: 10 miles
2014/09/01 12:54 KSBY 011254Z 25008KT 10SM CLR 27/24 A3004 RMK AO2 SLP175 T02720239